Etusivu
METAR-TAF:

METAR-TAF

Lentoasemat :

Pipestone Municipal Airport

Pipestone, Minnesota, Yhdysvallat

Leveyspiiri: 43-59N, Pituuspiiri: 096-19W, korkeus merenpinnasta: 529 m

Tämänhetkinen sää

Tämä raportti tehtiin 13 minuuttia sitten, kello 11.55 UTC
Tuuli 6 kn etelästä
Lämpötila 14°C
Kosteus 94%
Ilmanpaine 1021 hPa
Näkyvyys: 16.1 km
selkeää

METAR: KPQN 241155Z AUTO 19006KT 10SM CLR 14/13 A3016 RMK AO2

Aika: 07:08 (12:08 UTC)


TAF: puuttuu

Säähavainnot ja -ennusteet yli 4000 lentoasemalta (METAR- ja TAF-raportit).

Käytössä olevat sääasemat on merkitty karttaan keltaisilla ja punaisilla pisteillä.

Aseta hiiri pisteen päälle nähdäksesi sääaseman nimen.

Klikkaa sitten nähdäksesi säähavainnot ja -ennusteet.

Kartan vaihtaminen: klikkaa mustalla rastilla varustettuja vihreitä pisteitä, niin voit zoomata sisään; viivalla varustettua vihreää pistettä, niin voit zoomata ulos tai vihreitä nuolia, niin pääset viereisille kartoille.


METAR-TAF: